Time;durP1;ratioP1;P1;durP2;ratioP2;P2;SDS_P1;SDS_P2;PMS_P1;PMS_P2;Temp;Humidity;BMP_temperature;BMP_pressure;BME280_temperature;BME280_humidity;BME280_pressure;Samples;Min_cycle;Max_cycle;Signal;HPM_P1;HPM_P2
2022/06/05 00:00:53;;;;;;;13.05;4.95;;;;;;;17.79;62.25;100807.97;5047773;28;20068;-88
2022/06/05 00:03:25;;;;;;;13.40;5.55;;;;;;;17.60;63.12;100794.69;5050145;28;20688;-89
2022/06/05 00:06:22;;;;;;;10.77;6.50;;;;;;;17.59;62.68;100785.88;5052329;28;20107;-88
2022/06/05 00:09:07;;;;;;;13.23;5.95;;;;;;;17.70;62.42;100779.59;5050499;28;20033;-88
2022/06/05 00:11:52;;;;;;;13.75;6.18;;;;;;;17.38;63.01;100770.09;5051736;28;20056;-89
2022/06/05 00:14:18;;;;;;;12.07;6.07;;;;;;;17.20;63.84;100758.47;5051282;28;20035;-88
2022/06/05 00:16:44;;;;;;;15.77;6.65;;;;;;;17.34;63.94;100759.91;5051462;28;20025;-88
2022/06/05 00:19:09;;;;;;;13.52;7.45;;;;;;;16.82;63.58;100745.06;5046609;28;20028;-88
2022/06/05 00:21:34;;;;;;;9.63;6.20;;;;;;;17.21;63.85;100757.53;5050736;28;20059;-88
2022/06/05 00:24:00;;;;;;;13.50;6.80;;;;;;;17.23;64.62;100755.56;5051443;28;20036;-88
2022/06/05 00:26:33;;;;;;;10.40;6.00;;;;;;;17.32;63.68;100749.44;5052208;28;20033;-88
2022/06/05 00:29:24;;;;;;;13.68;6.43;;;;;;;17.28;64.22;100756.00;5052004;28;20033;-88
2022/06/05 00:32:11;;;;;;;16.67;7.63;;;;;;;17.13;64.49;100752.06;5051096;28;20021;-88
2022/06/05 00:34:37;;;;;;;12.60;6.72;;;;;;;16.89;64.08;100748.00;5049189;28;20411;-88
2022/06/05 00:37:43;;;;;;;10.18;6.47;;;;;;;16.90;64.15;100746.16;5051232;28;20016;-88
2022/06/05 00:40:56;;;;;;;20.52;6.80;;;;;;;16.74;64.73;100734.22;5040281;28;20498;-87
2022/06/05 00:43:24;;;;;;;16.27;7.28;;;;;;;15.92;66.19;100739.66;5051822;28;20028;-88
2022/06/05 00:45:51;;;;;;;14.25;7.55;;;;;;;16.14;66.43;100725.41;5048009;28;20386;-88
2022/06/05 00:48:17;;;;;;;14.75;7.65;;;;;;;15.78;66.82;100723.13;5051678;28;20348;-88
2022/06/05 00:50:44;;;;;;;16.30;8.50;;;;;;;16.50;65.73;100709.91;5050888;28;20148;-89
2022/06/05 00:53:11;;;;;;;10.85;7.18;;;;;;;16.44;65.26;100719.22;5051477;28;20020;-88
2022/06/05 00:55:47;;;;;;;18.17;8.20;;;;;;;16.05;65.70;100705.81;5048441;28;20025;-88
2022/06/05 00:58:13;;;;;;;15.65;8.30;;;;;;;15.77;66.90;100704.72;5051585;28;20029;-88
2022/06/05 01:00:47;;;;;;;12.25;7.88;;;;;;;16.08;66.18;100692.34;5049747;28;20032;-88
2022/06/05 01:03:14;;;;;;;17.52;8.55;;;;;;;15.57;67.91;100693.13;5049840;28;20078;-88
2022/06/05 01:05:40;;;;;;;20.20;8.63;;;;;;;15.92;66.00;100676.09;5051651;28;20063;-88
2022/06/05 01:08:07;;;;;;;14.70;7.80;;;;;;;15.29;68.18;100684.03;5050740;28;20056;-87
2022/06/05 01:11:00;;;;;;;14.23;8.75;;;;;;;15.05;68.76;100688.59;5050529;28;20078;-87
2022/06/05 01:13:31;;;;;;;14.65;9.02;;;;;;;15.41;67.69;100691.78;5050458;28;20027;-87
2022/06/05 01:16:05;;;;;;;21.45;9.25;;;;;;;15.56;67.33;100686.16;5050143;28;20121;-87
2022/06/05 01:18:54;;;;;;;19.10;9.75;;;;;;;15.25;68.21;100688.75;5049527;28;20501;-86
2022/06/05 01:21:40;;;;;;;15.27;8.65;;;;;;;15.30;67.73;100675.94;5050670;28;20040;-87
2022/06/05 01:24:25;;;;;;;18.10;10.10;;;;;;;15.11;68.58;100668.72;5049314;28;20108;-87
2022/06/05 01:26:56;;;;;;;17.92;9.93;;;;;;;15.01;69.30;100679.22;5050487;28;20066;-87
2022/06/05 01:29:27;;;;;;;16.48;8.48;;;;;;;14.94;68.72;100680.69;5050641;28;20039;-87
2022/06/05 01:31:58;;;;;;;17.33;10.20;;;;;;;15.36;67.89;100667.50;5052679;28;20029;-87
2022/06/05 01:34:32;;;;;;;21.75;10.70;;;;;;;14.98;68.41;100671.53;5055441;28;20021;-87
2022/06/05 01:37:07;;;;;;;13.88;9.70;;;;;;;15.12;68.80;100643.94;5052220;28;20033;-87
2022/06/05 01:39:43;;;;;;;13.73;8.80;;;;;;;15.16;68.83;100631.31;5054191;28;20438;-87
2022/06/05 01:42:17;;;;;;;18.95;10.05;;;;;;;15.32;67.46;100638.78;5055098;28;20032;-87
2022/06/05 01:44:47;;;;;;;15.35;9.65;;;;;;;15.25;68.18;100635.84;5051099;28;20459;-87
2022/06/05 01:47:23;;;;;;;13.55;9.63;;;;;;;14.84;69.20;100630.38;5053346;28;20029;-88
2022/06/05 01:50:21;;;;;;;18.48;10.20;;;;;;;15.07;68.88;100631.13;5054345;28;20091;-88
2022/06/05 01:52:53;;;;;;;16.38;9.95;;;;;;;15.13;69.09;100626.28;5030363;28;20553;-88
2022/06/05 01:55:46;;;;;;;19.52;9.88;;;;;;;15.47;67.95;100625.09;5054527;28;20048;-88
2022/06/05 01:58:14;;;;;;;19.85;10.93;;;;;;;14.87;69.20;100621.38;5048285;28;20056;-87
2022/06/05 02:00:41;;;;;;;15.30;10.40;;;;;;;14.97;69.02;100622.28;5050777;28;20033;-87
2022/06/05 02:03:18;;;;;;;22.73;10.73;;;;;;;15.60;66.94;100629.34;5054845;28;20021;-87
2022/06/05 02:05:45;;;;;;;19.30;9.80;;;;;;;14.96;68.58;100620.59;5054049;28;20160;-87
2022/06/05 02:08:19;;;;;;;17.67;9.50;;;;;;;15.29;67.60;100620.56;5053003;28;20032;-87
2022/06/05 02:11:03;;;;;;;16.05;10.00;;;;;;;15.36;67.32;100626.97;5054122;28;20033;-87
2022/06/05 02:13:28;;;;;;;18.77;10.57;;;;;;;15.23;67.29;100619.25;5052392;28;20136;-87
2022/06/05 02:15:54;;;;;;;20.70;9.30;;;;;;;15.16;67.24;100626.03;5052705;28;20099;-87
2022/06/05 02:18:20;;;;;;;22.23;10.93;;;;;;;15.37;66.88;100634.78;5054540;28;20112;-87
2022/06/05 02:20:46;;;;;;;16.70;10.20;;;;;;;15.63;66.33;100642.31;5052535;28;20033;-87
2022/06/05 02:23:15;;;;;;;19.77;10.48;;;;;;;15.59;66.00;100659.44;5054298;28;20025;-87
2022/06/05 02:25:41;;;;;;;18.73;10.07;;;;;;;15.19;67.52;100668.09;5052288;28;20021;-87
2022/06/05 02:28:10;;;;;;;16.33;10.02;;;;;;;15.34;67.15;100666.78;5054437;28;20029;-87
2022/06/05 02:31:11;;;;;;;19.88;9.77;;;;;;;15.62;65.49;100678.56;5051944;28;20522;-87
2022/06/05 02:34:02;;;;;;;21.48;9.38;;;;;;;15.78;65.64;100675.47;5050908;28;20029;-87
2022/06/05 02:36:55;;;;;;;22.40;11.23;;;;;;;15.56;66.24;100678.22;5054150;28;20025;-88
2022/06/05 02:39:43;;;;;;;12.50;9.40;;;;;;;15.99;64.54;100677.22;5051426;28;20067;-88
2022/06/05 02:42:34;;;;;;;16.17;9.23;;;;;;;15.94;65.00;100672.34;5048573;28;20548;-87
2022/06/05 02:45:14;;;;;;;14.07;9.88;;;;;;;15.79;65.37;100679.78;5052389;28;20155;-88
2022/06/05 02:48:08;;;;;;;18.23;9.93;;;;;;;15.94;64.71;100684.75;5053353;28;20388;-88
2022/06/05 02:50:44;;;;;;;15.18;9.48;;;;;;;15.88;65.09;100683.47;5051799;28;20029;-88
2022/06/05 02:53:12;;;;;;;15.57;9.38;;;;;;;15.77;64.78;100676.41;5047160;28;20039;-88
2022/06/05 02:55:38;;;;;;;18.92;9.20;;;;;;;15.50;65.61;100671.66;5052589;28;20025;-88
2022/06/05 02:58:04;;;;;;;19.98;9.82;;;;;;;15.40;66.21;100670.72;5052949;28;20029;-88
2022/06/05 03:00:32;;;;;;;14.98;9.68;;;;;;;15.50;66.58;100662.84;5051611;28;20486;-88
2022/06/05 03:05:42;;;;;;;14.50;9.63;;;;;;;15.30;66.72;100652.16;5053053;28;20549;-87
2022/06/05 03:08:10;;;;;;;14.40;9.82;;;;;;;15.31;67.04;100656.47;5053731;28;20041;-88
2022/06/05 03:10:36;;;;;;;15.73;8.98;;;;;;;15.67;66.09;100662.28;5052768;28;20025;-88
2022/06/05 03:13:02;;;;;;;14.85;9.20;;;;;;;15.70;65.24;100656.72;5053446;28;20092;-88
2022/06/05 03:15:29;;;;;;;16.98;9.77;;;;;;;15.94;64.92;100650.31;5051138;28;20570;-88
2022/06/05 03:17:54;;;;;;;13.70;8.63;;;;;;;15.61;65.71;100660.16;5052814;28;20029;-88
2022/06/05 03:20:20;;;;;;;15.23;8.68;;;;;;;15.63;65.98;100660.84;5052458;28;20506;-88
2022/06/05 03:22:46;;;;;;;11.35;8.23;;;;;;;15.27;66.36;100655.91;5052194;28;20029;-87
2022/06/05 03:25:17;;;;;;;18.70;9.25;;;;;;;15.58;65.92;100655.09;5052639;28;20502;-88
2022/06/05 03:27:43;;;;;;;12.38;9.30;;;;;;;15.64;65.01;100646.66;5053242;28;20054;-87
2022/06/05 03:30:09;;;;;;;10.65;8.38;;;;;;;15.41;66.16;100653.91;5052318;28;20120;-88
2022/06/05 03:32:35;;;;;;;13.82;8.60;;;;;;;15.51;65.86;100646.03;5052369;28;20103;-88
2022/06/05 03:35:00;;;;;;;13.07;7.80;;;;;;;15.24;66.25;100632.38;5052146;28;20541;-87
2022/06/05 03:37:25;;;;;;;10.98;7.88;;;;;;;15.27;65.96;100629.44;5052183;28;20033;-87
2022/06/05 03:39:51;;;;;;;11.35;7.50;;;;;;;15.52;65.42;100629.16;5052019;28;20482;-88
2022/06/05 03:42:16;;;;;;;9.43;7.57;;;;;;;14.94;67.16;100619.88;5051795;28;20029;-88
2022/06/05 03:44:42;;;;;;;12.48;7.65;;;;;;;15.55;65.93;100623.63;5052012;28;20064;-88
2022/06/05 03:47:09;;;;;;;11.63;8.13;;;;;;;15.29;66.52;100615.25;5050270;28;20398;-87
2022/06/05 03:49:36;;;;;;;12.18;8.10;;;;;;;15.38;65.64;100612.69;5051975;28;20044;-88
2022/06/05 03:52:03;;;;;;;11.00;7.03;;;;;;;15.73;65.43;100614.13;5051018;28;20463;-88
2022/06/05 03:54:29;;;;;;;12.45;7.80;;;;;;;15.78;65.08;100621.69;5052360;28;20033;-88
2022/06/05 03:56:54;;;;;;;9.68;7.20;;;;;;;15.56;66.03;100630.56;5051540;28;20021;-88
2022/06/05 03:59:19;;;;;;;12.45;7.57;;;;;;;15.50;66.04;100639.91;5050530;28;20368;-88
2022/06/05 04:01:45;;;;;;;10.45;7.28;;;;;;;15.65;65.99;100627.16;5049507;28;20057;-89
2022/06/05 04:04:10;;;;;;;9.98;7.20;;;;;;;15.30;66.75;100633.63;5051485;28;20116;-89
2022/06/05 04:06:35;;;;;;;10.68;7.32;;;;;;;15.53;65.41;100644.09;5052072;28;20491;-89
2022/06/05 04:09:05;;;;;;;10.65;6.82;;;;;;;15.42;66.04;100643.19;5049500;28;20025;-88
2022/06/05 04:11:32;;;;;;;8.25;6.32;;;;;;;15.67;65.71;100641.91;5049084;28;20068;-89
2022/06/05 04:13:58;;;;;;;9.55;6.50;;;;;;;15.52;65.40;100637.97;5050253;28;20025;-89
2022/06/05 04:16:25;;;;;;;9.57;7.57;;;;;;;15.67;65.42;100638.44;5048685;28;20099;-89
2022/06/05 04:18:52;;;;;;;11.20;6.80;;;;;;;15.45;66.21;100637.63;5049386;28;20805;-88
2022/06/05 04:21:24;;;;;;;9.05;5.95;;;;;;;15.79;65.31;100639.22;5049254;28;20115;-89
2022/06/05 04:23:50;;;;;;;11.45;5.97;;;;;;;15.55;65.13;100647.44;5051294;28;20031;-89
2022/06/05 04:26:24;;;;;;;7.50;5.90;;;;;;;15.60;66.02;100651.38;5051590;28;20044;-89
2022/06/05 04:28:53;;;;;;;8.77;6.15;;;;;;;15.44;66.22;100659.78;5052110;28;20028;-89
2022/06/05 04:31:28;;;;;;;8.52;5.38;;;;;;;15.51;66.37;100651.31;5050744;28;20065;-89
2022/06/05 04:33:56;;;;;;;8.30;5.97;;;;;;;15.36;66.35;100654.28;5052066;28;20555;-89
2022/06/05 04:36:21;;;;;;;10.27;5.90;;;;;;;15.79;64.89;100661.25;5049827;28;20415;-89
2022/06/05 04:38:47;;;;;;;10.15;5.85;;;;;;;15.80;65.09;100657.63;5050524;28;20025;-88
2022/06/05 04:41:13;;;;;;;8.45;5.03;;;;;;;15.85;64.94;100651.94;5051819;28;20029;-89
2022/06/05 04:43:39;;;;;;;9.32;5.85;;;;;;;15.59;65.28;100656.78;5051386;28;20211;-89
2022/06/05 04:46:05;;;;;;;12.43;6.68;;;;;;;15.34;66.86;100648.28;5049713;28;20520;-89
2022/06/05 04:48:32;;;;;;;7.45;4.82;;;;;;;15.61;65.33;100662.78;5048614;28;20029;-89
2022/06/05 04:50:58;;;;;;;7.25;5.60;;;;;;;15.33;66.36;100643.97;5050907;28;20021;-89
2022/06/05 04:53:24;;;;;;;5.85;4.70;;;;;;;15.69;65.48;100649.75;5050644;28;20064;-89
2022/06/05 04:55:49;;;;;;;9.70;5.70;;;;;;;15.42;65.65;100647.63;5051075;28;20059;-89
2022/06/05 04:58:15;;;;;;;7.25;5.47;;;;;;;15.53;65.87;100646.72;5051157;28;20027;-88
2022/06/05 05:00:40;;;;;;;7.40;5.30;;;;;;;15.61;65.48;100641.63;5048600;28;20523;-89
2022/06/05 05:03:06;;;;;;;10.70;6.10;;;;;;;15.63;66.22;100645.81;5050169;28;20036;-89
2022/06/05 05:05:33;;;;;;;7.85;5.32;;;;;;;15.48;66.12;100631.22;5050245;28;20021;-89
2022/06/05 05:07:58;;;;;;;7.38;5.10;;;;;;;15.50;65.99;100631.09;5050858;28;20071;-89
2022/06/05 05:10:23;;;;;;;7.03;5.15;;;;;;;15.08;67.08;100629.31;5051507;28;20104;-89
2022/06/05 05:12:49;;;;;;;5.95;5.03;;;;;;;14.90;67.80;100629.03;5051066;28;20467;-89
2022/06/05 05:15:14;;;;;;;5.43;4.85;;;;;;;14.84;67.91;100633.00;5050737;28;20029;-89
2022/06/05 05:17:39;;;;;;;5.75;5.07;;;;;;;14.78;67.86;100622.94;5050566;28;20136;-88
2022/06/05 05:20:05;;;;;;;6.68;5.07;;;;;;;14.95;67.97;100621.56;5051012;28;20171;-89
2022/06/05 05:22:37;;;;;;;6.95;5.03;;;;;;;15.39;66.83;100618.81;5051426;28;20471;-88
2022/06/05 05:25:05;;;;;;;5.50;4.90;;;;;;;15.43;66.81;100618.41;5050851;28;20094;-89
2022/06/05 05:27:31;;;;;;;5.20;4.70;;;;;;;15.12;66.83;100619.31;5049259;28;20417;-89
2022/06/05 05:29:56;;;;;;;8.48;5.05;;;;;;;14.73;68.77;100621.63;5051594;28;20025;-89
2022/06/05 05:32:21;;;;;;;7.00;4.90;;;;;;;15.20;67.32;100614.22;5050446;28;20029;-89
2022/06/05 05:34:47;;;;;;;7.00;4.72;;;;;;;15.53;66.19;100628.22;5050593;28;20415;-89
2022/06/05 05:37:12;;;;;;;5.43;4.82;;;;;;;15.25;67.09;100617.31;5050512;28;20387;-90
2022/06/05 05:42:21;;;;;;;6.90;5.05;;;;;;;15.81;65.64;100622.22;5050249;28;20395;-90
2022/06/05 05:44:48;;;;;;;5.25;4.70;;;;;;;15.65;65.94;100619.22;5050724;28;20028;-90
2022/06/05 05:47:29;;;;;;;4.75;4.20;;;;;;;15.72;65.52;100633.59;5049336;28;20031;-90
2022/06/05 05:49:57;;;;;;;4.85;4.25;;;;;;;15.73;65.31;100635.31;5046255;28;20108;-89
2022/06/05 05:52:23;;;;;;;6.13;4.50;;;;;;;15.94;65.45;100621.19;5043250;28;20029;-90
2022/06/05 05:54:49;;;;;;;5.85;4.70;;;;;;;15.90;65.17;100625.09;5040594;28;20060;-89
2022/06/05 05:57:16;;;;;;;4.25;3.58;;;;;;;15.83;65.72;100627.41;5042832;28;20029;-90
2022/06/05 05:59:42;;;;;;;4.25;3.85;;;;;;;15.97;65.05;100634.16;5043790;28;20035;-90
2022/06/05 06:02:13;;;;;;;6.05;3.85;;;;;;;16.18;64.15;100631.44;5044301;28;20025;-90
2022/06/05 06:04:40;;;;;;;5.25;3.17;;;;;;;15.27;67.25;100634.72;5041075;28;20128;-89
2022/06/05 06:07:06;;;;;;;7.00;3.30;;;;;;;15.19;67.65;100636.34;5042890;28;20395;-90
2022/06/05 06:09:33;;;;;;;4.20;3.90;;;;;;;15.04;68.19;100636.66;5042163;28;20028;-90
2022/06/05 06:11:59;;;;;;;4.85;3.88;;;;;;;15.47;66.96;100648.09;5042618;28;20025;-89
2022/06/05 06:14:24;;;;;;;3.97;3.58;;;;;;;15.65;66.42;100643.03;5048399;28;20039;-90
2022/06/05 06:16:49;;;;;;;3.33;3.03;;;;;;;15.65;66.50;100648.31;5048761;28;20032;-89
2022/06/05 06:19:15;;;;;;;3.13;2.90;;;;;;;15.18;68.17;100645.25;5050640;28;20475;-89
2022/06/05 06:21:40;;;;;;;3.97;3.00;;;;;;;15.39;66.68;100647.91;5050036;28;20475;-89
2022/06/05 06:24:05;;;;;;;3.00;2.22;;;;;;;15.47;66.40;100645.44;5053406;28;20025;-92
2022/06/05 06:26:31;;;;;;;4.28;2.60;;;;;;;15.34;67.42;100650.91;5048638;28;20036;-88
2022/06/05 06:28:56;;;;;;;3.60;2.80;;;;;;;15.59;66.48;100636.44;5049545;28;20602;-89
2022/06/05 06:31:22;;;;;;;4.60;2.40;;;;;;;15.74;66.69;100652.88;5052041;28;20120;-88
2022/06/05 06:33:48;;;;;;;3.20;2.63;;;;;;;16.21;64.76;100653.22;5049352;28;21554;-89
2022/06/05 06:36:15;;;;;;;2.42;2.22;;;;;;;16.23;64.33;100661.00;5051333;28;20033;-89
2022/06/05 06:38:40;;;;;;;1.90;1.80;;;;;;;16.03;64.26;100654.78;5052107;28;20021;-88
2022/06/05 06:41:09;;;;;;;2.53;2.33;;;;;;;15.81;64.73;100664.59;5051125;28;20399;-88
2022/06/05 06:43:35;;;;;;;2.05;1.85;;;;;;;15.43;66.79;100671.31;5043504;28;20376;-88
2022/06/05 06:46:02;;;;;;;2.65;2.10;;;;;;;15.80;65.74;100668.22;5046891;28;20351;-89
2022/06/05 06:48:28;;;;;;;2.65;2.30;;;;;;;15.72;65.65;100664.50;5048580;28;20021;-92
2022/06/05 06:50:55;;;;;;;4.60;2.55;;;;;;;15.83;65.72;100678.53;5052347;28;20032;-89
2022/06/05 06:53:21;;;;;;;2.15;1.95;;;;;;;16.01;64.79;100675.28;5050489;28;20117;-89
2022/06/05 06:55:48;;;;;;;2.80;2.60;;;;;;;16.19;64.88;100678.13;5045867;28;20103;-89
2022/06/05 06:58:13;;;;;;;2.40;2.13;;;;;;;15.99;65.08;100669.28;5046982;28;20497;-90
2022/06/05 07:00:39;;;;;;;2.80;2.35;;;;;;;16.24;64.51;100665.34;5046650;28;20874;-88
2022/06/05 07:03:04;;;;;;;2.40;2.20;;;;;;;16.35;64.01;100677.63;5045304;28;20111;-89
2022/06/05 07:05:31;;;;;;;2.67;2.47;;;;;;;15.92;65.02;100676.09;5044333;28;20029;-89
2022/06/05 07:07:56;;;;;;;2.70;2.50;;;;;;;16.13;64.69;100674.22;5042366;28;20454;-88
2022/06/05 07:10:22;;;;;;;2.30;2.10;;;;;;;16.30;64.52;100661.31;5043736;28;20036;-89
2022/06/05 07:12:48;;;;;;;3.15;2.42;;;;;;;16.14;64.78;100662.66;5048006;28;20029;-89
2022/06/05 07:15:14;;;;;;;2.55;2.35;;;;;;;16.56;63.77;100662.47;5045763;28;20387;-89
2022/06/05 07:17:40;;;;;;;4.18;2.90;;;;;;;16.70;62.85;100671.03;5043899;28;20075;-89
2022/06/05 07:20:07;;;;;;;3.63;2.33;;;;;;;16.78;63.08;100671.16;5044593;28;20033;-90
2022/06/05 07:22:33;;;;;;;3.28;2.72;;;;;;;16.15;64.39;100676.72;5046807;28;20103;-89
2022/06/05 07:24:59;;;;;;;4.25;2.97;;;;;;;16.00;65.37;100677.09;5043641;28;20542;-91
2022/06/05 07:27:25;;;;;;;2.65;2.45;;;;;;;16.53;63.71;100657.47;5049433;28;20036;-90
2022/06/05 07:29:50;;;;;;;3.55;2.47;;;;;;;16.58;63.14;100662.34;5050990;28;20024;-90
2022/06/05 07:32:17;;;;;;;2.42;2.17;;;;;;;16.80;63.28;100656.78;5044236;28;20387;-89
2022/06/05 07:34:43;;;;;;;2.60;2.40;;;;;;;17.01;62.71;100663.81;5049139;28;20464;-90
2022/06/05 07:37:08;;;;;;;2.97;2.47;;;;;;;16.95;62.51;100657.25;5049557;28;20074;-90
2022/06/05 07:39:34;;;;;;;2.67;2.45;;;;;;;16.83;63.28;100661.03;5047257;28;20079;-90
2022/06/05 07:41:59;;;;;;;2.95;2.47;;;;;;;17.18;62.24;100655.16;5045954;28;20463;-89
2022/06/05 07:44:26;;;;;;;2.60;2.40;;;;;;;17.40;61.37;100656.66;5043482;28;20028;-90
2022/06/05 07:46:52;;;;;;;2.70;2.50;;;;;;;17.31;62.14;100657.50;5045938;28;20147;-91
2022/06/05 07:49:18;;;;;;;4.88;3.78;;;;;;;17.70;60.37;100654.78;5047645;28;20120;-90
2022/06/05 07:54:28;;;;;;;2.47;2.28;;;;;;;17.61;60.70;100659.16;5047486;28;20028;-90
2022/06/05 07:57:15;;;;;;;3.03;2.35;;;;;;;17.72;60.16;100657.28;5051582;28;20532;-90
2022/06/05 07:59:46;;;;;;;2.63;2.42;;;;;;;17.66;60.41;100648.09;5045396;28;20037;-90
2022/06/05 08:02:14;;;;;;;2.40;2.20;;;;;;;17.62;61.05;100639.56;5048867;28;20052;-91
2022/06/05 08:04:42;;;;;;;5.35;2.65;;;;;;;17.76;61.18;100648.06;5047334;28;20029;-92
2022/06/05 08:07:10;;;;;;;3.38;3.08;;;;;;;17.93;60.58;100641.16;5047224;28;20037;-91
2022/06/05 08:09:37;;;;;;;2.45;2.22;;;;;;;17.98;59.64;100633.59;5043259;28;20096;-90
2022/06/05 08:12:03;;;;;;;2.50;2.30;;;;;;;17.96;60.28;100625.75;5033668;28;20029;-89
2022/06/05 08:14:32;;;;;;;2.58;2.00;;;;;;;18.49;58.87;100626.03;5046312;28;20047;-89
2022/06/05 08:16:59;;;;;;;3.28;2.03;;;;;;;18.00;59.82;100624.47;5043984;28;20048;-89
2022/06/05 08:19:24;;;;;;;4.10;2.70;;;;;;;18.52;58.57;100631.03;5046243;28;20025;-90
2022/06/05 08:21:52;;;;;;;2.78;2.42;;;;;;;18.85;57.86;100626.91;5046329;28;20021;-91
2022/06/05 08:24:18;;;;;;;2.53;2.33;;;;;;;18.69;58.42;100634.72;5047868;28;20041;-89
2022/06/05 08:26:45;;;;;;;2.47;2.15;;;;;;;18.52;58.34;100629.25;5048781;28;20055;-89
2022/06/05 08:29:11;;;;;;;2.10;1.90;;;;;;;18.88;57.90;100626.63;5044748;28;20394;-90
2022/06/05 08:31:37;;;;;;;2.50;2.10;;;;;;;19.09;57.68;100620.13;5041225;28;20540;-90
2022/06/05 08:34:04;;;;;;;2.92;2.28;;;;;;;19.54;57.80;100613.78;5044514;28;20094;-90
2022/06/05 08:36:31;;;;;;;2.95;2.15;;;;;;;19.44;56.78;100621.88;5044423;28;20081;-91
2022/06/05 08:41:53;;;;;;;2.42;2.22;;;;;;;20.11;55.54;100615.91;5044148;28;20067;-91
2022/06/05 08:44:55;;;;;;;3.45;2.10;;;;;;;20.35;54.72;100617.81;5042480;28;20032;-93
2022/06/05 08:47:29;;;;;;;4.85;2.70;;;;;;;20.08;54.72;100618.88;5044145;28;20040;-91
2022/06/05 08:50:03;;;;;;;3.28;2.53;;;;;;;19.78;56.63;100627.25;5046951;28;20055;-91
2022/06/05 08:52:55;;;;;;;3.10;2.20;;;;;;;20.44;54.63;100610.66;5044802;28;20060;-92
2022/06/05 08:55:31;;;;;;;3.00;2.72;;;;;;;20.07;54.75;100620.72;5040387;28;20078;-93
2022/06/05 08:58:16;;;;;;;2.38;2.15;;;;;;;20.40;54.41;100615.50;5043226;28;20074;-92
2022/06/05 09:01:17;;;;;;;4.35;2.80;;;;;;;19.55;55.87;100620.75;5038148;28;20518;-92
2022/06/05 09:03:56;;;;;;;4.68;2.67;;;;;;;20.06;54.92;100618.22;5035031;28;20067;-93
2022/06/05 09:06:38;;;;;;;3.67;2.58;;;;;;;19.96;54.95;100619.19;5042427;28;20036;-92
2022/06/05 09:09:10;;;;;;;3.58;2.95;;;;;;;19.98;55.70;100605.69;5048294;28;20029;-91
2022/06/05 09:11:49;;;;;;;3.85;3.00;;;;;;;19.90;55.70;100608.31;5049833;28;20082;-91
2022/06/05 09:14:20;;;;;;;4.78;2.97;;;;;;;20.46;54.97;100601.50;5049182;28;20071;-91
2022/06/05 09:16:52;;;;;;;4.85;3.28;;;;;;;20.70;54.21;100599.91;5043218;28;20037;-90
2022/06/05 09:19:35;;;;;;;4.22;3.00;;;;;;;20.68;54.95;100593.91;5045178;28;20040;-90
2022/06/05 09:22:04;;;;;;;5.28;3.03;;;;;;;21.18;52.91;100598.22;5048363;28;20036;-91
2022/06/05 09:25:03;;;;;;;4.55;2.75;;;;;;;20.57;54.48;100585.16;5049916;28;20051;-92
2022/06/05 09:27:47;;;;;;;2.58;2.35;;;;;;;20.99;54.84;100594.06;5050085;28;20063;-91
2022/06/05 09:30:29;;;;;;;4.97;2.88;;;;;;;20.98;52.96;100603.06;5051538;28;20029;-94
2022/06/05 09:33:09;;;;;;;4.43;2.58;;;;;;;21.10;53.59;100606.25;5044240;28;20033;-89
2022/06/05 09:35:45;;;;;;;3.38;3.08;;;;;;;20.31;55.00;100601.31;5045342;28;20120;-89
2022/06/05 09:38:29;;;;;;;4.10;2.67;;;;;;;20.66;53.46;100603.91;5050450;28;20173;-88
2022/06/05 09:41:37;;;;;;;3.13;2.50;;;;;;;20.85;53.99;100608.91;5046027;28;20029;-89
2022/06/05 09:44:24;;;;;;;4.43;3.40;;;;;;;20.70;54.97;100600.72;5031057;28;20123;-89
2022/06/05 09:47:02;;;;;;;3.83;3.00;;;;;;;20.86;54.71;100586.56;5045301;28;20029;-90
2022/06/05 09:49:31;;;;;;;4.68;3.47;;;;;;;20.68;53.84;100601.91;5048301;28;20483;-90
2022/06/05 09:52:07;;;;;;;4.45;3.50;;;;;;;20.78;53.32;100603.41;5051492;28;20029;-93
2022/06/05 09:54:39;;;;;;;4.63;3.10;;;;;;;20.95;53.44;100604.25;5051940;28;20036;-89
2022/06/05 10:00:26;;;;;;;7.38;3.55;;;;;;;20.70;54.15;100608.75;5053958;28;20052;-89
2022/06/05 10:02:59;;;;;;;10.07;4.90;;;;;;;20.45;54.05;100607.84;5034620;28;20368;-90
2022/06/05 10:05:28;;;;;;;4.07;3.03;;;;;;;20.46;54.81;100614.84;5051582;28;20024;-90
2022/06/05 10:08:24;;;;;;;5.03;3.70;;;;;;;20.33;54.75;100609.16;5054640;28;20032;-90
2022/06/05 10:10:55;;;;;;;5.18;3.40;;;;;;;20.11;55.59;100610.59;5066811;28;20451;-90
2022/06/05 10:13:23;;;;;;;4.60;3.45;;;;;;;20.57;54.59;100609.19;5053094;28;20570;-90
2022/06/05 10:15:56;;;;;;;6.65;3.13;;;;;;;20.55;54.36;100613.84;5053152;28;20076;-90
2022/06/05 10:18:29;;;;;;;4.30;3.63;;;;;;;20.44;54.90;100608.84;5054235;28;20052;-93
2022/06/05 10:21:02;;;;;;;4.75;3.40;;;;;;;19.91;56.08;100610.00;5053002;28;20037;-90
2022/06/05 10:23:43;;;;;;;4.80;3.28;;;;;;;20.21;55.54;100616.59;5053972;28;21175;-91
2022/06/05 10:26:37;;;;;;;4.72;3.50;;;;;;;20.15;55.46;100618.09;5054755;28;20025;-90
2022/06/05 10:29:18;;;;;;;4.50;3.72;;;;;;;20.34;55.07;100613.47;5040773;28;20033;-89
2022/06/05 10:31:54;;;;;;;3.13;2.57;;;;;;;20.53;55.64;100607.84;5054577;28;20033;-89
2022/06/05 10:34:30;;;;;;;5.25;3.40;;;;;;;20.57;54.66;100614.50;5053716;28;20021;-91
2022/06/05 10:36:56;;;;;;;5.32;3.90;;;;;;;20.44;54.77;100611.50;5051263;28;20537;-90
2022/06/05 10:39:40;;;;;;;4.88;4.22;;;;;;;20.10;54.96;100616.91;5053897;28;20037;-91
2022/06/05 10:42:30;;;;;;;6.15;4.68;;;;;;;19.37;56.98;100618.16;5052983;28;20083;-91
2022/06/05 10:45:12;;;;;;;6.95;4.63;;;;;;;19.56;56.62;100617.13;5052510;28;20031;-90
2022/06/05 10:47:56;;;;;;;6.22;4.72;;;;;;;20.02;55.96;100612.38;5033999;28;20110;-91
2022/06/05 10:50:31;;;;;;;8.70;4.97;;;;;;;19.54;56.80;100616.44;5050481;28;20021;-90
2022/06/05 10:53:18;;;;;;;6.13;3.97;;;;;;;20.09;55.95;100615.25;5053857;28;20559;-91
2022/06/05 10:56:22;;;;;;;5.38;4.43;;;;;;;20.28;55.22;100612.31;5048671;28;20021;-90
2022/06/05 10:58:58;;;;;;;6.35;5.10;;;;;;;19.75;56.43;100600.94;5035999;28;20033;-90
2022/06/05 11:01:35;;;;;;;6.28;4.75;;;;;;;19.89;56.67;100612.00;5044235;28;20376;-91
2022/06/05 11:04:32;;;;;;;7.00;4.78;;;;;;;20.29;56.30;100603.28;5051593;28;20025;-90
2022/06/05 11:07:13;;;;;;;5.72;4.22;;;;;;;20.71;54.83;100607.72;5039792;28;20041;-91
2022/06/05 11:09:46;;;;;;;5.95;4.30;;;;;;;20.76;55.12;100610.75;5052529;28;20040;-90
2022/06/05 11:15:43;;;;;;;5.68;4.15;;;;;;;19.89;56.57;100612.84;5053192;28;20099;-90
2022/06/05 11:18:18;;;;;;;5.63;4.15;;;;;;;19.83;57.16;100608.13;5051241;28;20112;-90
2022/06/05 11:20:56;;;;;;;6.57;4.95;;;;;;;20.23;56.20;100603.13;5053283;28;20083;-92
2022/06/05 11:23:26;;;;;;;5.50;4.05;;;;;;;19.95;56.52;100606.03;5052120;28;20032;-91
2022/06/05 11:25:58;;;;;;;5.50;4.47;;;;;;;19.95;56.16;100603.38;5052401;28;20028;-95
2022/06/05 11:28:42;;;;;;;6.15;4.13;;;;;;;19.95;56.76;100608.69;5054248;28;20021;-93
2022/06/05 11:31:19;;;;;;;5.57;4.13;;;;;;;19.49;57.97;100608.06;5049249;28;20036;-94
2022/06/05 11:34:22;;;;;;;4.95;4.30;;;;;;;19.65;58.00;100594.00;5052853;28;20041;-93
2022/06/05 11:36:53;;;;;;;6.70;5.28;;;;;;;19.67;57.54;100597.34;5053150;28;20089;-94
2022/06/05 11:39:36;;;;;;;8.73;4.97;;;;;;;19.52;57.58;100600.63;5053521;28;20033;-94
2022/06/05 11:42:13;;;;;;;6.00;4.38;;;;;;;19.63;57.42;100596.88;5053348;28;20079;-94
2022/06/05 11:44:47;;;;;;;7.25;4.85;;;;;;;19.86;57.45;100596.31;5054667;28;20064;-95
2022/06/05 11:47:42;;;;;;;5.88;4.55;;;;;;;20.13;56.51;100593.41;5053232;28;20116;-94
2022/06/05 11:50:29;;;;;;;6.32;4.47;;;;;;;20.19;55.87;100578.63;5052668;28;20051;-93
2022/06/05 11:53:13;;;;;;;4.85;3.88;;;;;;;20.29;56.05;100587.28;5053385;28;20029;-93
2022/06/05 11:55:58;;;;;;;5.80;4.60;;;;;;;20.32;55.71;100586.13;5052236;28;20532;-93
2022/06/05 11:58:52;;;;;;;5.78;4.57;;;;;;;20.17;56.47;100586.75;5052265;28;20116;-93
2022/06/05 12:01:24;;;;;;;5.38;4.30;;;;;;;20.20;55.74;100589.13;5052811;28;20600;-93
2022/06/05 12:03:55;;;;;;;;;;;;;;;19.72;56.81;100593.25;5053284;28;20029;-92